createdAt,value
2023-04-16T00:13:02.903Z,362
2023-04-16T00:33:02.978Z,362
2023-04-16T00:53:02.960Z,363
2023-04-16T01:13:03.032Z,364
2023-04-16T01:53:03.104Z,363
2023-04-16T02:13:03.205Z,362
2023-04-16T02:33:03.213Z,362
2023-04-16T02:53:03.097Z,361
2023-04-16T03:13:03.245Z,360
2023-04-16T03:33:03.311Z,360
2023-04-16T03:53:03.305Z,359
2023-04-16T04:13:03.363Z,361
2023-04-16T04:33:03.450Z,361
2023-04-16T04:53:03.405Z,358
2023-04-16T05:13:03.444Z,358
2023-04-16T05:33:03.479Z,359
2023-04-16T05:53:03.526Z,360
2023-04-16T06:13:03.553Z,359
2023-04-16T06:33:03.665Z,358
2023-04-16T06:53:03.614Z,359
2023-04-16T07:13:03.566Z,359
2023-04-16T07:33:03.770Z,359
2023-04-16T07:53:03.638Z,358
2023-04-16T08:13:03.771Z,359
2023-04-16T08:33:03.811Z,359
2023-04-16T08:53:03.824Z,360
2023-04-16T09:13:03.888Z,359
2023-04-16T09:33:03.900Z,359
2023-04-16T09:53:03.940Z,359
2023-04-16T10:33:04.053Z,359
2023-04-16T10:53:04.040Z,359
2023-04-16T11:13:04.046Z,358
2023-04-16T11:33:04.156Z,356
2023-04-16T11:53:04.136Z,357
2023-04-16T12:13:04.160Z,354
2023-04-16T13:13:04.218Z,358
2023-04-16T13:33:04.270Z,354
2023-04-16T13:53:04.274Z,355
2023-04-16T14:13:04.296Z,355
2023-04-16T14:33:04.335Z,355
2023-04-16T14:53:04.357Z,357
2023-04-16T15:13:04.230Z,357
2023-04-16T15:33:04.480Z,359
2023-04-16T15:53:04.446Z,357
2023-04-16T16:33:04.520Z,353
2023-04-16T16:53:04.539Z,353
2023-04-16T17:13:04.544Z,355
2023-04-16T17:53:04.621Z,352
2023-04-16T18:13:04.623Z,351
2023-04-16T18:53:04.616Z,351
2023-04-16T19:13:04.712Z,355
2023-04-16T19:33:04.761Z,353
2023-04-16T19:53:04.801Z,354
2023-04-16T20:13:04.847Z,353
2023-04-16T20:33:04.859Z,351
2023-04-16T20:53:04.693Z,354
2023-04-16T21:13:04.921Z,352
2023-04-16T21:33:04.996Z,352
2023-04-16T21:53:04.955Z,352
2023-04-16T22:13:05.016Z,354
2023-04-16T22:53:05.067Z,352
2023-04-16T23:13:05.104Z,351
2023-04-16T23:33:05.141Z,352
2023-04-16T23:53:05.169Z,351
